Time;durP1;ratioP1;P1;durP2;ratioP2;P2;SDS_P1;SDS_P2;PMS_P1;PMS_P2;Temp;Humidity;BMP_temperature;BMP_pressure;BME280_temperature;BME280_humidity;BME280_pressure;Samples;Min_cycle;Max_cycle;Signal;HPM_P1;HPM_P2
2022/09/23 00:06:16;;;;;;;0.20;0.10;;;19.30;99.90;;;;;;26043016;22;20226;-68
2022/09/23 00:16:25;;;;;;;0.20;0.10;;;19.40;99.90;;;;;;26014068;22;20191;-69
2022/09/23 00:26:29;;;;;;;0.20;0.10;;;19.30;99.90;;;;;;26042091;22;20156;-69
2022/09/23 00:36:34;;;;;;;0.20;0.10;;;19.30;99.90;;;;;;26040553;22;20239;-70
2022/09/23 00:46:42;;;;;;;0.20;0.00;;;19.10;99.90;;;;;;26014665;22;20256;-68
2022/09/23 00:56:47;;;;;;;0.20;0.00;;;19.10;99.90;;;;;;26014225;22;20200;-68
2022/09/23 01:06:51;;;;;;;0.20;0.00;;;18.80;99.90;;;;;;26012200;22;20196;-69
2022/09/23 01:17:02;;;;;;;0.20;0.00;;;18.60;99.90;;;;;;26041904;22;20875;-69
2022/09/23 01:27:15;;;;;;;0.20;0.00;;;18.60;99.90;;;;;;26015164;22;20187;-68
2022/09/23 01:37:27;;;;;;;0.20;0.00;;;18.50;99.90;;;;;;26014606;22;20176;-69
2022/09/23 01:47:36;;;;;;;0.20;0.00;;;18.40;99.90;;;;;;26015917;22;20176;-69
2022/09/23 01:57:44;;;;;;;0.20;0.00;;;18.40;99.90;;;;;;26039620;22;20196;-68
2022/09/23 02:07:52;;;;;;;0.20;0.00;;;18.40;99.90;;;;;;26011941;22;20230;-69
2022/09/23 02:18:02;;;;;;;0.20;0.00;;;18.30;99.90;;;;;;26043959;22;20240;-68
2022/09/23 02:28:13;;;;;;;0.20;0.00;;;18.20;99.90;;;;;;26047329;22;20164;-67
2022/09/23 02:38:25;;;;;;;0.20;0.10;;;18.20;99.90;;;;;;26045902;22;20175;-68
2022/09/23 02:48:33;;;;;;;0.20;0.00;;;18.30;99.90;;;;;;26046991;22;20160;-68
2022/09/23 02:58:38;;;;;;;0.20;0.00;;;18.00;99.90;;;;;;26019390;22;20280;-68
2022/09/23 03:08:49;;;;;;;0.20;0.10;;;18.00;99.90;;;;;;26044293;22;20262;-69
2022/09/23 03:19:04;;;;;;;0.20;0.00;;;18.00;99.90;;;;;;26044383;22;20187;-68
2022/09/23 03:29:10;;;;;;;0.20;0.00;;;18.10;99.90;;;;;;26017734;22;20251;-68
2022/09/23 03:39:26;;;;;;;0.20;0.00;;;18.20;99.90;;;;;;26043795;22;20196;-69
2022/09/23 03:49:34;;;;;;;0.20;0.10;;;18.10;99.90;;;;;;26042749;22;20198;-68
2022/09/23 03:59:40;;;;;;;0.20;0.10;;;18.10;99.90;;;;;;26042225;22;20241;-69
2022/09/23 04:09:44;;;;;;;0.20;0.00;;;18.00;99.90;;;;;;26016499;22;20243;-68
2022/09/23 04:19:49;;;;;;;0.20;0.00;;;18.00;99.90;;;;;;26014361;22;20180;-68
2022/09/23 04:29:52;;;;;;;0.20;0.10;;;18.00;99.90;;;;;;26041892;22;20208;-68
2022/09/23 04:39:57;;;;;;;0.20;0.10;;;18.10;99.90;;;;;;26039473;22;20274;-68
2022/09/23 04:50:01;;;;;;;0.20;0.10;;;18.00;99.90;;;;;;26040586;22;20176;-69
2022/09/23 05:00:08;;;;;;;0.20;0.00;;;18.00;99.90;;;;;;26012170;22;20326;-68
2022/09/23 05:10:12;;;;;;;0.20;0.00;;;18.10;99.90;;;;;;26038830;22;20244;-68
2022/09/23 05:20:18;;;;;;;0.20;0.00;;;18.10;99.90;;;;;;26039571;22;20184;-69
2022/09/23 05:30:21;;;;;;;0.20;0.10;;;18.30;99.90;;;;;;26013923;22;20171;-68
2022/09/23 05:40:26;;;;;;;0.20;0.00;;;18.10;99.90;;;;;;26037037;22;20262;-67
2022/09/23 05:50:30;;;;;;;0.20;0.00;;;18.00;99.90;;;;;;26035806;22;20184;-67
2022/09/23 06:00:35;;;;;;;0.20;0.10;;;18.20;99.90;;;;;;26016567;22;20294;-66
2022/09/23 06:10:40;;;;;;;0.20;0.10;;;18.20;99.90;;;;;;26043288;22;20240;-68
2022/09/23 06:20:45;;;;;;;0.20;0.10;;;18.40;99.90;;;;;;26045003;22;20226;-68
2022/09/23 06:30:49;;;;;;;0.20;0.00;;;18.50;99.90;;;;;;26016295;22;20223;-66
2022/09/23 06:40:56;;;;;;;0.20;0.10;;;18.80;99.90;;;;;;26045028;22;20184;-67
2022/09/23 06:51:02;;;;;;;0.20;0.00;;;19.50;99.90;;;;;;26042023;22;20192;-69
2022/09/23 07:01:09;;;;;;;0.20;0.00;;;19.80;99.90;;;;;;26036701;22;20184;-67
2022/09/23 07:11:13;;;;;;;0.20;0.00;;;20.40;99.90;;;;;;26039613;22;20180;-66
2022/09/23 07:21:20;;;;;;;0.20;0.00;;;20.80;99.90;;;;;;26038561;22;20214;-68
2022/09/23 07:31:24;;;;;;;0.20;0.00;;;21.10;99.90;;;;;;26012003;22;20183;-68
2022/09/23 07:41:43;;;;;;;0.20;0.00;;;21.70;99.90;;;;;;26012828;22;20183;-68
2022/09/23 07:51:47;;;;;;;0.20;0.00;;;22.20;99.90;;;;;;26038291;22;20188;-67
2022/09/23 08:01:53;;;;;;;0.20;0.00;;;22.60;99.90;;;;;;26041014;22;20263;-68
2022/09/23 08:11:57;;;;;;;0.20;0.00;;;22.90;99.90;;;;;;26038495;22;20187;-68
2022/09/23 08:22:03;;;;;;;0.20;0.00;;;23.10;99.90;;;;;;26038469;22;20260;-68
2022/09/23 08:32:06;;;;;;;0.20;0.00;;;23.20;99.90;;;;;;26038670;22;20263;-68
2022/09/23 08:42:21;;;;;;;0.20;0.00;;;23.30;99.90;;;;;;26039209;22;20180;-67
2022/09/23 08:52:33;;;;;;;0.20;0.00;;;23.50;99.90;;;;;;26037289;22;20275;-65
2022/09/23 09:02:38;;;;;;;0.20;0.00;;;23.70;99.90;;;;;;26035383;22;20231;-70
2022/09/23 09:12:43;;;;;;;0.20;0.00;;;23.80;99.90;;;;;;26011445;22;20317;-68
2022/09/23 09:22:54;;;;;;;0.20;0.10;;;24.00;99.90;;;;;;26008251;22;20248;-67
2022/09/23 09:33:01;;;;;;;0.20;0.10;;;24.20;99.90;;;;;;26043201;22;20254;-68
2022/09/23 09:43:07;;;;;;;0.20;0.00;;;24.60;99.90;;;;;;26017625;22;20200;-67
2022/09/23 09:53:23;;;;;;;0.20;0.00;;;24.60;99.90;;;;;;26016598;22;20211;-68
2022/09/23 10:03:37;;;;;;;0.20;0.00;;;24.90;99.90;;;;;;26015321;22;20204;-66
2022/09/23 10:13:43;;;;;;;0.20;0.00;;;25.30;99.90;;;;;;26041577;22;20266;-69
2022/09/23 10:23:51;;;;;;;0.20;0.00;;;25.50;99.90;;;;;;26043255;22;20230;-67
2022/09/23 10:33:58;;;;;;;0.20;0.00;;;25.80;99.90;;;;;;26041296;22;20223;-65
2022/09/23 10:54:51;;;;;;;0.20;0.10;;;26.80;99.90;;;;;;26042420;22;20191;-68
2022/09/23 11:05:39;;;;;;;0.20;0.00;;;27.50;99.90;;;;;;26040849;22;20192;-68
2022/09/23 11:15:58;;;;;;;0.20;0.00;;;28.20;99.90;;;;;;25994677;22;20168;-69
2022/09/23 11:26:10;;;;;;;0.20;0.00;;;28.00;99.90;;;;;;26012924;22;20267;-68
2022/09/23 11:36:24;;;;;;;0.20;0.00;;;29.00;99.90;;;;;;26037491;22;20168;-67
2022/09/23 11:46:34;;;;;;;0.20;0.00;;;29.60;99.90;;;;;;26039941;22;20243;-68
2022/09/23 11:56:44;;;;;;;0.20;0.00;;;29.20;99.90;;;;;;26012839;22;20212;-68
2022/09/23 12:06:56;;;;;;;0.20;0.00;;;27.40;99.90;;;;;;26012029;22;20279;-71
2022/09/23 12:17:17;;;;;;;0.20;0.10;;;28.20;99.90;;;;;;26036889;22;20303;-69
2022/09/23 12:27:30;;;;;;;0.20;0.00;;;27.40;99.90;;;;;;26009386;22;20255;-70
2022/09/23 12:37:38;;;;;;;0.20;0.00;;;28.40;99.90;;;;;;26010542;22;20213;-70
2022/09/23 12:47:42;;;;;;;0.20;0.00;;;28.80;99.90;;;;;;26008613;22;20211;-69
2022/09/23 12:57:47;;;;;;;0.20;0.00;;;29.60;99.90;;;;;;26036609;22;20234;-69
2022/09/23 13:07:51;;;;;;;0.20;0.00;;;29.80;99.90;;;;;;26037712;22;20183;-70
2022/09/23 13:18:25;;;;;;;0.20;0.00;;;28.40;99.90;;;;;;26034754;22;20176;-70
2022/09/23 13:28:33;;;;;;;0.20;0.00;;;29.20;99.90;;;;;;26038336;22;20251;-70
2022/09/23 13:38:38;;;;;;;0.20;0.00;;;28.60;99.90;;;;;;26010636;22;20242;-70
2022/09/23 13:48:45;;;;;;;0.20;0.00;;;28.20;99.90;;;;;;26038006;22;20168;-72
2022/09/23 13:58:51;;;;;;;0.20;0.00;;;29.00;99.90;;;;;;26033636;22;20206;-69
2022/09/23 14:08:55;;;;;;;0.20;0.00;;;29.60;99.90;;;;;;26030861;22;20264;-69
2022/09/23 14:19:01;;;;;;;0.20;0.10;;;29.40;99.90;;;;;;25987839;22;20247;-69
2022/09/23 14:29:06;;;;;;;0.20;0.00;;;28.30;99.90;;;;;;26036315;22;20351;-69
2022/09/23 14:39:12;;;;;;;0.20;0.00;;;29.40;99.90;;;;;;26038423;22;20230;-70
2022/09/23 14:49:17;;;;;;;0.20;0.00;;;29.90;99.90;;;;;;26035290;22;20179;-68
2022/09/23 14:59:27;;;;;;;0.20;0.10;;;28.20;99.90;;;;;;26040721;22;20215;-67
2022/09/23 15:09:33;;;;;;;0.20;0.00;;;27.30;99.90;;;;;;26035704;22;20176;-70
2022/09/23 15:19:38;;;;;;;0.20;0.00;;;27.20;99.90;;;;;;26034179;22;20184;-69
2022/09/23 15:29:45;;;;;;;0.20;0.00;;;27.30;99.90;;;;;;26034551;22;20220;-69
2022/09/23 15:39:51;;;;;;;0.20;0.08;;;26.90;99.90;;;;;;26035176;22;20191;-69
2022/09/23 15:49:54;;;;;;;0.20;0.00;;;26.90;99.90;;;;;;26036145;22;20190;-69
2022/09/23 15:59:59;;;;;;;0.20;0.00;;;26.60;99.90;;;;;;25880905;23;20239;-69
2022/09/23 16:10:03;;;;;;;0.20;0.10;;;26.30;99.90;;;;;;25906335;23;20204;-69
2022/09/23 16:20:09;;;;;;;0.20;0.00;;;26.20;99.90;;;;;;25906873;23;20241;-67
2022/09/23 16:30:13;;;;;;;0.20;0.00;;;26.20;99.90;;;;;;25905893;23;20187;-69
2022/09/23 16:40:21;;;;;;;0.20;0.00;;;26.00;99.90;;;;;;25908911;23;20201;-70
2022/09/23 16:50:25;;;;;;;0.20;0.00;;;25.90;99.90;;;;;;25913860;22;20198;-69
2022/09/23 17:10:57;;;;;;;0.20;0.00;;;25.60;99.90;;;;;;26035288;22;20195;-68
2022/09/23 17:21:04;;;;;;;0.20;0.00;;;25.40;99.90;;;;;;26034835;22;20184;-69
2022/09/23 17:31:08;;;;;;;0.20;0.10;;;25.10;99.90;;;;;;26034707;22;20218;-68
2022/09/23 17:41:14;;;;;;;0.20;0.00;;;25.20;99.90;;;;;;26034948;22;20195;-68
2022/09/23 17:51:18;;;;;;;0.20;0.00;;;24.90;99.90;;;;;;26012889;22;20251;-68
2022/09/23 18:01:25;;;;;;;0.20;0.00;;;25.00;99.90;;;;;;26044015;22;20203;-68
2022/09/23 18:11:31;;;;;;;0.20;0.00;;;24.80;99.90;;;;;;26039037;22;20176;-69
2022/09/23 18:21:39;;;;;;;0.20;0.00;;;25.00;99.90;;;;;;26016078;22;20195;-67
2022/09/23 18:31:44;;;;;;;0.20;0.00;;;24.90;99.90;;;;;;26013187;22;20216;-68
2022/09/23 18:41:49;;;;;;;0.20;0.00;;;24.80;99.90;;;;;;26013759;22;20188;-67
2022/09/23 18:51:55;;;;;;;0.20;0.10;;;24.70;99.90;;;;;;26043429;22;20275;-68
2022/09/23 19:02:00;;;;;;;0.20;0.00;;;24.40;99.90;;;;;;26041724;22;20199;-68
2022/09/23 19:12:04;;;;;;;0.20;0.00;;;24.10;99.90;;;;;;26033870;22;20213;-69
2022/09/23 19:22:09;;;;;;;0.20;0.00;;;22.70;99.90;;;;;;26036751;22;20183;-68
2022/09/23 19:32:15;;;;;;;0.20;0.00;;;22.50;99.90;;;;;;26039513;22;20178;-68
2022/09/23 19:42:20;;;;;;;0.20;0.00;;;22.30;99.90;;;;;;26035543;22;20239;-68
2022/09/23 19:52:24;;;;;;;0.20;0.00;;;22.20;99.90;;;;;;26037861;22;20214;-68
2022/09/23 20:02:29;;;;;;;0.20;0.00;;;22.50;99.90;;;;;;26037866;22;20184;-68
2022/09/23 20:12:33;;;;;;;0.20;0.00;;;22.80;99.90;;;;;;26037726;22;20218;-68
2022/09/23 20:22:38;;;;;;;0.20;0.10;;;22.80;99.90;;;;;;26036446;22;20220;-67
2022/09/23 20:32:42;;;;;;;0.20;0.00;;;22.70;99.90;;;;;;26009666;22;20255;-68
2022/09/23 20:42:49;;;;;;;0.20;0.03;;;22.90;99.90;;;;;;26035554;22;20228;-68
2022/09/23 20:52:53;;;;;;;0.20;0.00;;;23.00;99.90;;;;;;26034596;22;20204;-69
2022/09/23 21:02:58;;;;;;;0.20;0.00;;;23.00;99.90;;;;;;26010283;22;20229;-71
2022/09/23 21:13:05;;;;;;;0.20;0.00;;;23.20;99.90;;;;;;26027720;22;20204;-70
2022/09/23 21:23:10;;;;;;;0.20;0.00;;;23.10;99.90;;;;;;26002131;22;20248;-70
2022/09/23 21:33:17;;;;;;;0.20;0.00;;;22.90;99.90;;;;;;26005176;22;20164;-68
2022/09/23 21:43:23;;;;;;;0.20;0.10;;;22.50;99.90;;;;;;26029454;22;20192;-69
2022/09/23 21:53:28;;;;;;;0.20;0.00;;;21.90;99.90;;;;;;25976751;22;1245626;-68
2022/09/23 22:03:33;;;;;;;0.20;0.00;;;21.80;99.90;;;;;;26036242;22;20181;-69
2022/09/23 22:13:37;;;;;;;0.20;0.03;;;21.80;99.90;;;;;;26010000;22;20188;-69
2022/09/23 22:23:42;;;;;;;0.20;0.00;;;21.70;99.90;;;;;;26034309;22;20192;-69
2022/09/23 22:33:49;;;;;;;0.20;0.00;;;21.70;99.90;;;;;;26039801;22;20164;-70
2022/09/23 22:43:54;;;;;;;0.20;0.00;;;21.50;99.90;;;;;;26019918;22;20242;-69
2022/09/23 22:53:58;;;;;;;0.20;0.00;;;21.40;99.90;;;;;;26044762;22;20207;-69
2022/09/23 23:04:04;;;;;;;0.20;0.00;;;21.30;99.90;;;;;;26044129;22;20176;-68
2022/09/23 23:14:08;;;;;;;0.20;0.00;;;21.30;99.90;;;;;;26044198;22;20195;-69
2022/09/23 23:24:18;;;;;;;0.20;0.00;;;21.20;99.90;;;;;;26044572;22;20176;-70
2022/09/23 23:34:22;;;;;;;0.20;0.00;;;21.10;99.90;;;;;;26042975;22;20227;-69
2022/09/23 23:44:29;;;;;;;0.20;0.00;;;21.00;99.90;;;;;;26044177;22;20188;-69
2022/09/23 23:54:33;;;;;;;0.20;0.10;;;20.00;99.90;;;;;;26043458;22;20192;-70
